Time;durP1;ratioP1;P1;durP2;ratioP2;P2;SDS_P1;SDS_P2;PMS_P1;PMS_P2;Temp;Humidity;BMP_temperature;BMP_pressure;BME280_temperature;BME280_humidity;BME280_pressure;Samples;Min_cycle;Max_cycle;Signal;HPM_P1;HPM_P2
2024/01/19 00:01:40;;;;;;;63.72;38.58;;;;;;;6.49;100.00;98473.34;5052067;28;20104;-71
2024/01/19 00:04:06;;;;;;;66.78;42.03;;;;;;;6.49;100.00;98448.34;5083537;28;20059;-71
2024/01/19 00:06:31;;;;;;;70.80;44.13;;;;;;;6.49;100.00;98429.69;5092009;28;20042;-71
2024/01/19 00:08:57;;;;;;;75.70;44.70;;;;;;;6.39;100.00;98430.06;5073812;28;20093;-71
2024/01/19 00:11:23;;;;;;;65.18;40.95;;;;;;;6.43;100.00;98433.81;5056328;28;20088;-71
2024/01/19 00:13:48;;;;;;;69.10;39.95;;;;;;;6.55;100.00;98433.94;5045002;28;20077;-71
2024/01/19 00:16:14;;;;;;;73.60;43.63;;;;;;;6.58;100.00;98415.78;5051581;28;20059;-71
2024/01/19 00:18:39;;;;;;;67.07;41.17;;;;;;;6.65;100.00;98424.41;5051671;28;20535;-71
2024/01/19 00:21:05;;;;;;;70.80;41.95;;;;;;;6.65;100.00;98410.50;5050082;28;20486;-71
2024/01/19 00:23:31;;;;;;;72.20;43.28;;;;;;;6.71;100.00;98427.81;5061258;28;20093;-71
2024/01/19 00:25:56;;;;;;;77.80;46.35;;;;;;;6.82;100.00;98439.38;5075346;28;20493;-66
2024/01/19 00:28:22;;;;;;;76.90;45.85;;;;;;;6.67;100.00;98437.97;5063754;28;20040;-67
2024/01/19 00:30:47;;;;;;;77.38;45.83;;;;;;;6.64;100.00;98416.41;5053388;28;20093;-67
2024/01/19 00:33:13;;;;;;;75.25;46.92;;;;;;;6.74;100.00;98435.47;5053394;28;20032;-67
2024/01/19 00:35:38;;;;;;;77.88;46.80;;;;;;;6.80;100.00;98428.59;5075471;28;20104;-67
2024/01/19 00:38:04;;;;;;;76.85;45.70;;;;;;;6.84;100.00;98423.97;5044381;28;20032;-67
2024/01/19 00:40:29;;;;;;;68.53;41.85;;;;;;;6.84;100.00;98417.63;5060771;28;20429;-67
2024/01/19 00:42:55;;;;;;;64.00;40.58;;;;;;;6.96;100.00;98391.84;5071121;28;20075;-67
2024/01/19 00:45:20;;;;;;;64.32;39.25;;;;;;;7.00;100.00;98379.72;5070428;28;20035;-66
2024/01/19 00:47:46;;;;;;;61.83;37.00;;;;;;;6.99;100.00;98375.31;5071122;28;20032;-67
2024/01/19 00:50:13;;;;;;;57.97;36.80;;;;;;;7.00;100.00;98388.06;5071080;28;20451;-66
2024/01/19 00:52:39;;;;;;;61.75;36.53;;;;;;;7.12;100.00;98392.06;5053119;28;20047;-66
2024/01/19 00:55:05;;;;;;;58.50;36.15;;;;;;;7.18;100.00;98381.56;5048343;28;20024;-68
2024/01/19 00:57:31;;;;;;;55.13;34.22;;;;;;;7.25;100.00;98374.31;5050997;28;20035;-67
2024/01/19 00:59:56;;;;;;;52.22;33.78;;;;;;;7.30;100.00;98371.34;5050938;28;20104;-67
2024/01/19 01:02:22;;;;;;;48.65;32.03;;;;;;;7.23;100.00;98364.66;5032957;28;20036;-66
2024/01/19 01:04:48;;;;;;;52.08;30.88;;;;;;;7.12;100.00;98359.53;5038747;28;20036;-67
2024/01/19 01:07:13;;;;;;;50.28;33.17;;;;;;;7.27;100.00;98354.50;5091099;28;20024;-66
2024/01/19 01:09:38;;;;;;;46.88;30.38;;;;;;;7.26;100.00;98350.09;5084588;28;20051;-66
2024/01/19 01:12:04;;;;;;;49.85;30.02;;;;;;;7.01;100.00;98349.97;5029251;28;20419;-66
2024/01/19 01:14:30;;;;;;;53.63;32.75;;;;;;;6.99;100.00;98349.47;5046137;28;20083;-67
2024/01/19 01:16:55;;;;;;;48.63;30.15;;;;;;;7.07;100.00;98350.56;5043624;28;20119;-66
2024/01/19 01:19:21;;;;;;;43.83;28.45;;;;;;;6.71;100.00;98355.56;5026687;28;20101;-67
2024/01/19 01:21:46;;;;;;;49.53;30.27;;;;;;;6.93;100.00;98350.84;5048892;28;20040;-66
2024/01/19 01:24:12;;;;;;;48.15;30.45;;;;;;;6.82;100.00;98356.78;5050782;28;20413;-66
2024/01/19 01:26:37;;;;;;;47.50;29.77;;;;;;;6.88;100.00;98349.06;5027614;28;20449;-66
2024/01/19 01:29:02;;;;;;;54.28;31.75;;;;;;;6.74;100.00;98344.59;5045477;28;20021;-66
2024/01/19 01:31:28;;;;;;;50.78;31.67;;;;;;;6.83;100.00;98361.19;5049302;28;20021;-66
2024/01/19 01:33:53;;;;;;;50.60;31.58;;;;;;;6.82;100.00;98353.22;5050658;28;20100;-66
2024/01/19 01:36:19;;;;;;;48.92;30.67;;;;;;;6.91;100.00;98347.59;5072319;28;20031;-71
2024/01/19 01:38:44;;;;;;;50.28;30.77;;;;;;;6.65;100.00;98348.56;5072675;28;20051;-71
2024/01/19 01:41:10;;;;;;;51.30;30.52;;;;;;;6.45;100.00;98343.41;5059035;28;20063;-71
2024/01/19 01:43:36;;;;;;;51.42;28.77;;;;;;;6.42;100.00;98346.09;5050600;28;20417;-71
2024/01/19 01:46:01;;;;;;;46.55;29.55;;;;;;;6.30;100.00;98347.59;5063816;28;20032;-71
2024/01/19 01:48:26;;;;;;;55.33;32.38;;;;;;;6.40;100.00;98351.97;5032671;28;20025;-71
2024/01/19 01:50:54;;;;;;;63.33;40.35;;;;;;;6.52;100.00;98348.47;5032554;28;20128;-71
2024/01/19 01:53:20;;;;;;;66.00;39.42;;;;;;;6.57;100.00;98344.66;5032552;28;20028;-71
2024/01/19 01:55:47;;;;;;;69.15;41.40;;;;;;;6.73;100.00;98356.03;5050672;28;20029;-71
2024/01/19 01:58:15;;;;;;;66.00;41.38;;;;;;;6.84;100.00;98360.03;5054355;28;20033;-71
2024/01/19 02:00:42;;;;;;;59.92;38.17;;;;;;;6.80;100.00;98359.09;5071698;28;20024;-71
2024/01/19 02:03:08;;;;;;;47.85;28.50;;;;;;;6.65;100.00;98368.03;5055303;28;20029;-71
2024/01/19 02:05:34;;;;;;;54.50;28.15;;;;;;;6.40;100.00;98365.06;5077377;28;20020;-71
2024/01/19 02:08:00;;;;;;;45.08;30.27;;;;;;;6.39;100.00;98358.66;5036226;28;20036;-71
2024/01/19 02:10:26;;;;;;;44.28;28.55;;;;;;;6.43;100.00;98383.81;5053761;28;20041;-71
2024/01/19 02:12:52;;;;;;;49.00;29.08;;;;;;;6.28;100.00;98396.28;5054716;28;20417;-72
2024/01/19 02:15:21;;;;;;;44.72;29.73;;;;;;;6.31;100.00;98399.22;5036752;28;20478;-71
2024/01/19 02:17:49;;;;;;;44.77;28.13;;;;;;;6.39;100.00;98413.38;5092330;28;20065;-71
2024/01/19 02:20:14;;;;;;;51.25;29.20;;;;;;;6.45;100.00;98409.28;5077200;28;20569;-71
2024/01/19 02:22:42;;;;;;;47.88;29.02;;;;;;;6.36;100.00;98405.72;5055728;28;20028;-71
2024/01/19 02:25:08;;;;;;;49.47;29.50;;;;;;;6.09;100.00;98396.69;5073775;28;20115;-71
2024/01/19 02:27:34;;;;;;;51.95;31.10;;;;;;;6.04;100.00;98409.59;5089442;28;20111;-71
2024/01/19 02:30:01;;;;;;;51.72;32.30;;;;;;;5.88;100.00;98408.47;5053713;28;20025;-71
2024/01/19 02:32:26;;;;;;;54.70;33.63;;;;;;;5.79;100.00;98415.97;5053562;28;20047;-71
2024/01/19 02:34:51;;;;;;;54.50;32.65;;;;;;;5.75;100.00;98416.63;5053704;28;20477;-71
2024/01/19 02:37:17;;;;;;;51.63;33.55;;;;;;;5.64;100.00;98420.09;5069317;28;20078;-71
2024/01/19 02:39:43;;;;;;;61.97;36.58;;;;;;;5.58;100.00;98416.66;5055212;28;20036;-71
2024/01/19 02:42:08;;;;;;;58.13;35.90;;;;;;;5.60;100.00;98419.94;5073801;28;20023;-71
2024/01/19 02:44:34;;;;;;;61.10;37.13;;;;;;;5.54;100.00;98424.81;5073397;28;20109;-71
2024/01/19 02:46:59;;;;;;;62.22;35.65;;;;;;;5.55;100.00;98426.44;5064815;28;20520;-71
2024/01/19 02:49:25;;;;;;;68.88;39.75;;;;;;;5.60;100.00;98428.25;5073422;28;20420;-72
2024/01/19 02:51:50;;;;;;;60.78;37.70;;;;;;;5.68;100.00;98429.38;5055226;28;20174;-71
2024/01/19 02:54:16;;;;;;;63.28;38.83;;;;;;;5.76;100.00;98425.78;5066419;28;20033;-71
2024/01/19 02:56:41;;;;;;;66.25;38.28;;;;;;;5.80;100.00;98431.50;5093391;28;20549;-71
2024/01/19 02:59:08;;;;;;;60.50;34.40;;;;;;;5.85;100.00;98428.56;5093423;28;20077;-71
2024/01/19 03:01:33;;;;;;;55.88;34.03;;;;;;;5.90;100.00;98434.75;5093274;28;20032;-71
2024/01/19 03:04:03;;;;;;;59.65;34.58;;;;;;;6.04;100.00;98440.16;5075005;28;20031;-71
2024/01/19 03:06:29;;;;;;;54.88;33.90;;;;;;;6.05;100.00;98446.50;5078349;28;20494;-71
2024/01/19 03:08:54;;;;;;;51.35;31.08;;;;;;;6.08;100.00;98442.25;5074762;28;20035;-72
2024/01/19 03:11:20;;;;;;;49.50;29.63;;;;;;;6.24;100.00;98448.91;5074602;28;20045;-71
2024/01/19 03:13:46;;;;;;;45.55;29.02;;;;;;;6.32;100.00;98441.69;5054786;28;20393;-72
2024/01/19 03:16:11;;;;;;;43.33;28.27;;;;;;;6.42;100.00;98440.53;5061257;28;20112;-72
2024/01/19 03:18:37;;;;;;;46.95;28.65;;;;;;;6.48;100.00;98433.63;5033984;28;20036;-71
2024/01/19 03:21:02;;;;;;;49.33;29.67;;;;;;;6.53;100.00;98439.00;5052802;28;20475;-72
2024/01/19 03:23:28;;;;;;;45.33;29.27;;;;;;;6.60;100.00;98433.72;5052913;28;20392;-72
2024/01/19 03:25:54;;;;;;;49.97;32.05;;;;;;;6.68;100.00;98434.84;5063097;28;20024;-72
2024/01/19 03:28:19;;;;;;;55.78;33.47;;;;;;;6.70;100.00;98435.34;5050367;28;20028;-72
2024/01/19 03:30:45;;;;;;;53.83;32.15;;;;;;;6.76;100.00;98433.19;5051324;28;20025;-72
2024/01/19 03:33:10;;;;;;;51.80;32.40;;;;;;;6.87;100.00;98436.38;5052475;28;20056;-72
2024/01/19 03:35:36;;;;;;;59.33;36.42;;;;;;;6.90;100.00;98435.72;5061192;28;20059;-72
2024/01/19 03:38:01;;;;;;;57.30;35.58;;;;;;;6.99;100.00;98436.47;5054389;28;20032;-71
2024/01/19 03:40:27;;;;;;;61.20;35.28;;;;;;;7.06;100.00;98432.34;5063021;28;20033;-72
2024/01/19 03:42:52;;;;;;;50.15;33.92;;;;;;;7.03;100.00;98431.06;5052225;28;20025;-72
2024/01/19 03:45:18;;;;;;;54.63;33.85;;;;;;;7.01;100.00;98442.53;5064755;28;20039;-72
2024/01/19 03:47:44;;;;;;;55.33;32.67;;;;;;;7.13;100.00;98438.19;5054328;28;20493;-72
2024/01/19 03:50:09;;;;;;;57.45;34.85;;;;;;;7.18;100.00;98428.84;5072150;28;20029;-71
2024/01/19 03:52:37;;;;;;;55.15;37.05;;;;;;;7.13;100.00;98444.59;5072081;28;20055;-71
2024/01/19 03:55:05;;;;;;;53.75;32.95;;;;;;;6.99;100.00;98438.44;5071989;28;20043;-71
2024/01/19 03:57:30;;;;;;;58.33;34.05;;;;;;;7.05;100.00;98436.28;5072054;28;20016;-72
2024/01/19 03:59:56;;;;;;;45.78;29.40;;;;;;;6.86;100.00;98430.00;5049839;28;20091;-71
2024/01/19 04:02:21;;;;;;;59.92;32.75;;;;;;;6.99;100.00;98435.66;5034410;28;20539;-71
2024/01/19 04:04:48;;;;;;;52.03;36.15;;;;;;;6.97;100.00;98437.97;5051620;28;20033;-71
2024/01/19 04:07:13;;;;;;;52.95;34.05;;;;;;;6.95;100.00;98427.19;5065520;28;20024;-71
2024/01/19 04:09:39;;;;;;;53.13;33.13;;;;;;;7.09;100.00;98435.28;5071064;28;20507;-71
2024/01/19 04:12:14;;;;;;;50.92;33.53;;;;;;;7.16;100.00;98421.66;5071722;28;20045;-71
2024/01/19 04:14:44;;;;;;;55.85;34.60;;;;;;;7.15;100.00;98420.03;5071426;28;20035;-71
2024/01/19 04:17:11;;;;;;;59.47;37.70;;;;;;;7.24;100.00;98419.13;5051056;28;20076;-72
2024/01/19 04:19:37;;;;;;;64.63;40.40;;;;;;;7.24;100.00;98419.97;5049559;28;20032;-71
2024/01/19 04:22:03;;;;;;;83.47;47.95;;;;;;;6.81;100.00;98430.22;5050380;28;20509;-72
2024/01/19 04:24:29;;;;;;;92.00;55.05;;;;;;;6.92;100.00;98429.81;5033591;28;20107;-71
2024/01/19 04:26:55;;;;;;;90.35;53.05;;;;;;;6.92;100.00;98432.59;5058203;28;20089;-71
2024/01/19 04:29:20;;;;;;;100.93;56.88;;;;;;;6.94;100.00;98433.09;5056571;28;20584;-72
2024/01/19 04:31:46;;;;;;;88.43;53.90;;;;;;;7.02;100.00;98433.03;5051818;28;20033;-71
2024/01/19 04:34:11;;;;;;;96.50;51.80;;;;;;;6.77;100.00;98426.47;5051033;28;20029;-71
2024/01/19 04:36:37;;;;;;;87.05;50.42;;;;;;;6.92;100.00;98422.28;5066760;28;20032;-71
2024/01/19 04:39:03;;;;;;;82.50;47.30;;;;;;;6.93;100.00;98423.13;5053292;28;20421;-71
2024/01/19 04:41:29;;;;;;;71.80;43.13;;;;;;;6.91;100.00;98425.41;5053706;28;20092;-71
2024/01/19 04:43:55;;;;;;;63.20;39.38;;;;;;;6.94;100.00;98431.13;5051235;28;20037;-71
2024/01/19 04:46:20;;;;;;;64.45;37.90;;;;;;;6.35;100.00;98431.88;5039375;28;20119;-71
2024/01/19 04:48:46;;;;;;;93.22;57.33;;;;;;;5.91;100.00;98443.88;5068871;28;20532;-72
2024/01/19 04:51:11;;;;;;;115.95;69.57;;;;;;;5.67;100.00;98447.19;5063003;28;20481;-71
2024/01/19 04:53:37;;;;;;;94.50;58.20;;;;;;;5.69;100.00;98440.16;5060482;28;20306;-71
2024/01/19 04:56:06;;;;;;;88.03;50.10;;;;;;;5.60;100.00;98447.66;5033436;28;20027;-72
2024/01/19 04:58:36;;;;;;;84.85;52.80;;;;;;;5.61;100.00;98444.59;5075392;28;20020;-71
2024/01/19 05:01:02;;;;;;;89.68;53.50;;;;;;;5.66;100.00;98453.88;5073125;28;20622;-72
2024/01/19 05:03:27;;;;;;;81.75;51.38;;;;;;;5.79;100.00;98455.66;5073189;28;20107;-71
2024/01/19 05:05:53;;;;;;;72.28;46.42;;;;;;;5.85;100.00;98459.91;5081656;28;20024;-72
2024/01/19 05:08:18;;;;;;;49.53;31.95;;;;;;;5.88;100.00;98463.97;5067840;28;20031;-72
2024/01/19 05:10:44;;;;;;;46.15;28.38;;;;;;;5.76;100.00;98453.53;5058822;28;20084;-71
2024/01/19 05:13:09;;;;;;;69.88;40.67;;;;;;;5.68;100.00;98466.28;5050857;28;20028;-70
2024/01/19 05:15:35;;;;;;;64.88;42.60;;;;;;;5.64;100.00;98470.03;5055677;28;20494;-72
2024/01/19 05:18:01;;;;;;;62.70;39.95;;;;;;;5.65;100.00;98468.88;5052883;28;20024;-70
2024/01/19 05:20:27;;;;;;;58.80;35.67;;;;;;;5.67;100.00;98463.81;5052686;28;20035;-70
2024/01/19 05:22:53;;;;;;;65.22;39.83;;;;;;;5.66;100.00;98462.19;5070591;28;20616;-70
2024/01/19 05:25:18;;;;;;;63.92;38.10;;;;;;;5.50;100.00;98470.19;5069282;28;20107;-70
2024/01/19 05:27:44;;;;;;;65.70;39.42;;;;;;;5.38;100.00;98468.06;5052381;28;20016;-70
2024/01/19 05:30:13;;;;;;;67.32;40.47;;;;;;;5.33;100.00;98457.94;5071542;28;20020;-70
2024/01/19 05:32:39;;;;;;;58.22;37.50;;;;;;;5.27;100.00;98479.47;5056899;28;20020;-71
2024/01/19 05:35:05;;;;;;;63.03;41.40;;;;;;;5.17;100.00;98480.56;5056404;28;20028;-69
2024/01/19 05:37:30;;;;;;;70.20;39.78;;;;;;;5.03;100.00;98479.91;5057062;28;20082;-70
2024/01/19 05:39:56;;;;;;;54.55;34.22;;;;;;;5.13;100.00;98478.78;5073991;28;20405;-70
2024/01/19 05:42:21;;;;;;;54.45;36.20;;;;;;;5.14;100.00;98481.22;5054680;28;20100;-70
2024/01/19 05:44:47;;;;;;;80.15;39.42;;;;;;;5.15;100.00;98488.41;5054403;28;20482;-69
2024/01/19 05:47:12;;;;;;;70.85;42.72;;;;;;;5.22;100.00;98501.00;5073516;28;20035;-69
2024/01/19 05:49:40;;;;;;;68.20;40.63;;;;;;;5.15;100.00;98493.94;5074459;28;20028;-69
2024/01/19 05:52:06;;;;;;;59.20;37.63;;;;;;;5.30;100.00;98503.78;5071391;28;20021;-69
2024/01/19 05:54:36;;;;;;;63.50;39.63;;;;;;;5.42;100.00;98489.25;5041621;28;20036;-66
2024/01/19 05:57:01;;;;;;;63.67;40.78;;;;;;;5.36;100.00;98506.38;5071857;28;20075;-67
2024/01/19 05:59:27;;;;;;;80.03;46.83;;;;;;;5.41;100.00;98498.72;5052973;28;20052;-67
2024/01/19 06:01:53;;;;;;;77.43;47.15;;;;;;;5.41;100.00;98504.28;5072359;28;20032;-67
2024/01/19 06:04:19;;;;;;;78.25;48.85;;;;;;;5.50;100.00;98515.41;5056317;28;20021;-66
2024/01/19 06:06:44;;;;;;;70.32;44.58;;;;;;;5.48;100.00;98507.38;5074091;28;20077;-66
2024/01/19 06:09:10;;;;;;;70.95;43.33;;;;;;;5.58;100.00;98513.75;5053657;28;20538;-69
2024/01/19 06:11:36;;;;;;;73.85;43.42;;;;;;;5.59;100.00;98504.31;5068534;28;20087;-67
2024/01/19 06:14:03;;;;;;;61.55;39.55;;;;;;;5.61;100.00;98500.06;5054196;28;20529;-67
2024/01/19 06:16:31;;;;;;;58.67;35.83;;;;;;;5.87;100.00;98495.63;5069607;28;20027;-66
2024/01/19 06:18:58;;;;;;;65.63;41.47;;;;;;;5.72;100.00;98494.16;5052620;28;20033;-66
2024/01/19 06:21:27;;;;;;;74.55;46.10;;;;;;;5.73;100.00;98507.72;5066345;28;20032;-66
2024/01/19 06:23:52;;;;;;;69.05;43.53;;;;;;;5.64;100.00;98517.19;5024271;28;20430;-66
2024/01/19 06:26:18;;;;;;;103.88;67.95;;;;;;;5.84;100.00;98526.84;5036021;28;20021;-66
2024/01/19 06:28:43;;;;;;;57.75;37.53;;;;;;;5.69;100.00;98540.06;5047693;28;20025;-66
2024/01/19 06:31:10;;;;;;;72.10;47.13;;;;;;;5.79;100.00;98546.41;5055660;28;20043;-67
2024/01/19 06:33:39;;;;;;;87.25;54.03;;;;;;;5.90;100.00;98543.00;5071550;28;20031;-66
2024/01/19 06:36:09;;;;;;;103.90;67.00;;;;;;;6.21;100.00;98532.88;5073570;28;20028;-66
2024/01/19 06:38:34;;;;;;;108.45;64.07;;;;;;;6.02;100.00;98544.34;5055924;28;20473;-66
2024/01/19 06:41:00;;;;;;;115.80;62.08;;;;;;;5.95;100.00;98542.00;5072178;28;20036;-66
2024/01/19 06:43:25;;;;;;;69.63;40.85;;;;;;;6.03;100.00;98555.13;5072299;28;20425;-72
2024/01/19 06:45:50;;;;;;;57.20;35.15;;;;;;;6.20;100.00;98559.00;5054077;28;20021;-70
2024/01/19 06:48:16;;;;;;;52.80;30.35;;;;;;;6.42;100.00;98559.97;5053769;28;20033;-70
2024/01/19 06:50:41;;;;;;;69.18;38.47;;;;;;;6.52;100.00;98565.19;5072732;28;20024;-70
2024/01/19 06:53:07;;;;;;;56.92;35.13;;;;;;;6.76;100.00;98563.81;5064923;28;20024;-70
2024/01/19 06:55:32;;;;;;;68.90;42.50;;;;;;;6.69;100.00;98557.94;5053966;28;20378;-70
2024/01/19 06:57:58;;;;;;;72.40;42.38;;;;;;;6.71;100.00;98561.22;5068131;28;20043;-71
2024/01/19 07:00:26;;;;;;;68.70;41.95;;;;;;;6.63;100.00;98548.13;5051727;28;20105;-70
2024/01/19 07:02:52;;;;;;;51.42;34.50;;;;;;;6.84;100.00;98567.72;5069447;28;20129;-73
2024/01/19 07:05:18;;;;;;;50.42;32.15;;;;;;;6.94;100.00;98556.25;5041896;28;20082;-74
2024/01/19 07:07:45;;;;;;;51.67;33.75;;;;;;;7.08;100.00;98563.53;5042091;28;20041;-73
2024/01/19 07:10:13;;;;;;;61.22;35.97;;;;;;;7.26;100.00;98547.59;5065589;28;20491;-73
2024/01/19 07:12:39;;;;;;;50.03;30.73;;;;;;;7.55;100.00;98545.94;5065358;28;20032;-72
2024/01/19 07:15:06;;;;;;;37.85;23.38;;;;;;;7.57;100.00;98552.78;5071751;28;20520;-71
2024/01/19 07:17:32;;;;;;;49.72;28.98;;;;;;;7.69;100.00;98545.69;5060289;28;20048;-73
2024/01/19 07:19:59;;;;;;;39.25;23.30;;;;;;;7.86;100.00;98545.53;5064867;28;20031;-74
2024/01/19 07:22:27;;;;;;;31.25;20.67;;;;;;;8.07;100.00;98544.72;5023886;28;20033;-73
2024/01/19 07:24:53;;;;;;;75.15;48.08;;;;;;;8.25;100.00;98539.81;5060134;28;20024;-73
2024/01/19 07:27:18;;;;;;;34.53;21.75;;;;;;;8.51;100.00;98544.34;5046999;28;20021;-72
2024/01/19 07:29:44;;;;;;;43.50;25.85;;;;;;;8.34;100.00;98539.72;5052428;28;20052;-72
2024/01/19 07:32:09;;;;;;;49.08;33.83;;;;;;;8.65;100.00;98534.84;5064670;28;20028;-73
2024/01/19 07:34:35;;;;;;;28.05;18.52;;;;;;;8.52;100.00;98553.53;5055758;28;20516;-71
2024/01/19 07:37:07;;;;;;;43.58;27.80;;;;;;;8.79;100.00;98540.13;5030360;28;20029;-72
2024/01/19 07:39:33;;;;;;;30.45;19.10;;;;;;;8.97;100.00;98537.94;5057710;28;20106;-73
2024/01/19 07:41:58;;;;;;;36.15;24.95;;;;;;;8.73;100.00;98530.31;5041517;28;20071;-73
2024/01/19 07:44:24;;;;;;;28.48;19.85;;;;;;;8.71;100.00;98522.31;5037416;28;20401;-72
2024/01/19 07:46:49;;;;;;;31.92;20.52;;;;;;;8.61;100.00;98517.19;5049718;28;20490;-75
2024/01/19 07:49:20;;;;;;;42.05;23.58;;;;;;;8.72;100.00;98532.31;5045772;28;20470;-73
2024/01/19 07:51:47;;;;;;;31.08;21.17;;;;;;;8.88;100.00;98523.28;5050574;28;20642;-74
2024/01/19 07:54:12;;;;;;;28.02;16.58;;;;;;;8.96;100.00;98525.94;5067205;28;20529;-72
2024/01/19 07:56:38;;;;;;;19.40;14.65;;;;;;;8.97;100.00;98530.34;5068007;28;20020;-73
2024/01/19 07:59:03;;;;;;;16.00;12.73;;;;;;;9.04;100.00;98532.56;5062101;28;20507;-74
2024/01/19 08:01:29;;;;;;;23.63;13.65;;;;;;;9.07;100.00;98539.44;5050316;28;20555;-72
2024/01/19 08:03:54;;;;;;;20.17;13.52;;;;;;;9.22;100.00;98537.94;5068776;28;20179;-71
2024/01/19 08:06:20;;;;;;;15.43;11.13;;;;;;;9.30;100.00;98541.78;5067759;28;20029;-73
2024/01/19 08:08:45;;;;;;;15.40;9.85;;;;;;;9.27;100.00;98538.53;5061917;28;20035;-73
2024/01/19 08:11:11;;;;;;;13.30;10.07;;;;;;;9.26;100.00;98542.47;5050698;28;20274;-73
2024/01/19 08:13:36;;;;;;;15.77;10.77;;;;;;;9.33;100.00;98555.03;5041409;28;20036;-71
2024/01/19 08:16:02;;;;;;;14.82;9.73;;;;;;;9.41;100.00;98559.69;5042115;28;20378;-73
2024/01/19 08:18:33;;;;;;;14.43;9.50;;;;;;;9.53;100.00;98561.63;5043938;28;20513;-73
2024/01/19 08:21:03;;;;;;;26.08;14.90;;;;;;;9.69;100.00;98548.59;5041789;28;20064;-74
2024/01/19 08:23:29;;;;;;;17.05;10.80;;;;;;;9.78;100.00;98554.03;5036187;28;20027;-75
2024/01/19 08:26:06;;;;;;;12.57;9.98;;;;;;;9.94;100.00;98550.50;5065453;28;20627;-70
2024/01/19 08:28:32;;;;;;;22.17;13.67;;;;;;;10.15;100.00;98550.34;5043766;28;20044;-71
2024/01/19 08:30:57;;;;;;;19.00;12.45;;;;;;;10.42;100.00;98547.94;5028992;28;20033;-74
2024/01/19 08:33:22;;;;;;;18.52;11.35;;;;;;;10.77;100.00;98552.06;5035610;28;20037;-74
2024/01/19 08:35:49;;;;;;;25.63;12.13;;;;;;;10.88;100.00;98560.75;5051757;28;20031;-74
2024/01/19 08:38:15;;;;;;;8.95;5.82;;;;;;;11.01;100.00;98569.84;5044753;28;20131;-74
2024/01/19 08:40:40;;;;;;;15.32;5.65;;;;;;;11.24;100.00;98570.06;5042645;28;20029;-74
2024/01/19 08:43:06;;;;;;;9.10;5.22;;;;;;;11.42;100.00;98564.91;5025265;28;20080;-74
2024/01/19 08:45:31;;;;;;;7.30;4.18;;;;;;;11.54;100.00;98566.78;5048428;28;20028;-72
2024/01/19 08:47:57;;;;;;;7.90;5.45;;;;;;;11.48;100.00;98574.63;5045323;28;20419;-70
2024/01/19 08:50:23;;;;;;;8.32;4.65;;;;;;;11.58;100.00;98562.06;5040768;28;20044;-73
2024/01/19 08:52:49;;;;;;;10.60;5.65;;;;;;;11.67;100.00;98570.28;5042719;28;20462;-68
2024/01/19 08:55:14;;;;;;;12.23;6.80;;;;;;;11.56;100.00;98572.81;5045686;28;20024;-73
2024/01/19 08:57:41;;;;;;;15.55;10.63;;;;;;;11.53;100.00;98565.16;5056136;28;20028;-74
2024/01/19 09:00:07;;;;;;;14.63;7.05;;;;;;;11.35;100.00;98565.53;5045118;28;20585;-73
2024/01/19 09:02:33;;;;;;;15.38;7.95;;;;;;;11.41;100.00;98562.47;5041873;28;20028;-72
2024/01/19 09:04:59;;;;;;;15.35;8.57;;;;;;;11.47;100.00;98567.41;5043984;28;20039;-73
2024/01/19 09:07:25;;;;;;;10.35;7.00;;;;;;;11.61;100.00;98569.75;5043745;28;20029;-73
2024/01/19 09:09:50;;;;;;;11.48;7.38;;;;;;;11.51;100.00;98556.31;5031032;28;20143;-72
2024/01/19 09:12:16;;;;;;;9.20;6.25;;;;;;;11.56;100.00;98572.81;5017985;28;20036;-74
2024/01/19 09:14:41;;;;;;;8.45;5.95;;;;;;;11.65;100.00;98584.63;5021438;28;20028;-70
2024/01/19 09:17:07;;;;;;;8.73;5.50;;;;;;;11.75;100.00;98579.66;5024106;28;20025;-69
2024/01/19 09:19:32;;;;;;;9.02;5.90;;;;;;;11.91;100.00;98574.03;5019975;28;20021;-72
2024/01/19 09:21:57;;;;;;;7.65;4.85;;;;;;;11.96;100.00;98568.13;5021011;28;20053;-69
2024/01/19 09:24:24;;;;;;;5.30;4.63;;;;;;;11.97;100.00;98572.53;5017219;28;20049;-69
2024/01/19 09:26:49;;;;;;;5.82;4.53;;;;;;;12.04;100.00;98564.34;5019705;28;20409;-70
2024/01/19 09:29:16;;;;;;;11.00;6.22;;;;;;;12.22;100.00;98558.28;5017040;28;20456;-66
2024/01/19 09:31:42;;;;;;;8.15;5.43;;;;;;;12.40;100.00;98555.84;5017759;28;20435;-69
2024/01/19 09:34:07;;;;;;;11.38;6.22;;;;;;;12.46;100.00;98548.78;5019713;28;20032;-70
2024/01/19 09:36:33;;;;;;;8.82;5.40;;;;;;;12.62;100.00;98539.44;5007308;28;20029;-68
2024/01/19 09:38:58;;;;;;;11.05;6.30;;;;;;;12.80;100.00;98536.97;5005959;28;20022;-68
2024/01/19 09:41:30;;;;;;;9.57;5.57;;;;;;;12.94;100.00;98535.59;5002610;28;20041;-69
2024/01/19 09:43:55;;;;;;;9.70;5.38;;;;;;;12.89;100.00;98536.72;5007994;28;20041;-70
2024/01/19 09:46:30;;;;;;;11.45;5.30;;;;;;;13.03;100.00;98534.19;5013254;28;20033;-70
2024/01/19 09:49:35;;;;;;;12.07;6.13;;;;;;;13.09;100.00;98523.44;5009780;28;20040;-70
2024/01/19 09:52:25;;;;;;;15.55;6.75;;;;;;;13.37;100.00;98529.91;5010579;28;20030;-70
2024/01/19 09:54:51;;;;;;;10.95;6.00;;;;;;;13.45;100.00;98534.47;5009545;28;20092;-70
2024/01/19 09:57:16;;;;;;;9.18;4.72;;;;;;;13.58;100.00;98527.44;5011309;28;20088;-72
2024/01/19 09:59:43;;;;;;;8.23;4.07;;;;;;;13.87;100.00;98516.59;5005843;28;20513;-72
2024/01/19 10:02:09;;;;;;;11.45;5.43;;;;;;;13.82;100.00;98519.75;5009770;28;20026;-73
2024/01/19 10:04:35;;;;;;;10.05;4.40;;;;;;;13.87;100.00;98511.00;5010422;28;20038;-72
2024/01/19 10:07:01;;;;;;;9.02;3.95;;;;;;;13.59;100.00;98515.03;5010703;28;20828;-73
2024/01/19 10:09:28;;;;;;;5.82;3.65;;;;;;;13.58;100.00;98510.59;5010484;28;20040;-73
2024/01/19 10:11:54;;;;;;;7.18;3.33;;;;;;;13.67;100.00;98506.72;5008075;28;20467;-73
2024/01/19 10:14:21;;;;;;;5.07;3.78;;;;;;;13.83;100.00;98507.31;5002734;28;20092;-72
2024/01/19 10:16:50;;;;;;;5.43;4.00;;;;;;;13.93;100.00;98500.22;5019089;28;20486;-73
2024/01/19 10:19:20;;;;;;;4.37;3.13;;;;;;;13.93;99.42;98496.63;5010678;28;20141;-71
2024/01/19 10:21:46;;;;;;;6.37;3.53;;;;;;;14.17;100.00;98500.91;5010064;28;20033;-71
2024/01/19 10:24:18;;;;;;;7.07;3.20;;;;;;;14.32;100.00;98504.72;5010241;28;20048;-72
2024/01/19 10:26:47;;;;;;;5.35;3.58;;;;;;;14.41;99.65;98493.97;5010095;28;20022;-71
2024/01/19 10:29:15;;;;;;;3.13;2.50;;;;;;;14.60;100.00;98495.00;5010232;28;20591;-73
2024/01/19 10:31:45;;;;;;;4.38;3.13;;;;;;;14.74;99.85;98483.91;5008424;28;20034;-71
2024/01/19 10:34:19;;;;;;;8.35;3.22;;;;;;;14.88;97.69;98488.03;5007523;28;20512;-71
2024/01/19 10:36:45;;;;;;;7.47;3.90;;;;;;;14.65;97.43;98482.56;5010448;28;20033;-69
2024/01/19 10:39:21;;;;;;;8.45;3.33;;;;;;;14.94;98.53;98475.22;5009172;28;20029;-73
2024/01/19 10:41:51;;;;;;;8.05;3.63;;;;;;;14.92;95.41;98480.44;5005957;28;20034;-71
2024/01/19 10:44:20;;;;;;;7.10;3.20;;;;;;;15.13;95.37;98476.97;5010406;28;20026;-70
2024/01/19 10:46:46;;;;;;;8.63;4.90;;;;;;;15.26;93.91;98471.84;5008904;28;20523;-69
2024/01/19 10:49:14;;;;;;;8.50;3.58;;;;;;;15.36;90.93;98473.13;5008836;28;20477;-69
2024/01/19 10:51:46;;;;;;;4.30;3.05;;;;;;;15.48;93.28;98466.38;5010736;28;20481;-70
2024/01/19 10:54:20;;;;;;;8.23;2.88;;;;;;;15.42;89.02;98434.13;5010251;28;20516;-71
2024/01/19 10:56:46;;;;;;;4.93;2.60;;;;;;;15.62;86.54;98457.19;5010864;28;20025;-70
2024/01/19 10:59:13;;;;;;;4.07;1.90;;;;;;;15.70;82.77;98446.78;5007592;28;20022;-69
2024/01/19 11:01:40;;;;;;;7.78;2.45;;;;;;;15.77;83.57;98449.63;5009159;28;20452;-68
2024/01/19 11:04:12;;;;;;;3.92;2.55;;;;;;;15.94;79.58;98448.09;5010412;28;20496;-69
2024/01/19 11:06:38;;;;;;;7.35;2.67;;;;;;;15.84;78.30;98431.91;5010808;28;20464;-73
2024/01/19 11:09:07;;;;;;;3.13;2.38;;;;;;;15.91;77.99;98439.63;5009325;28;20057;-72
2024/01/19 11:11:43;;;;;;;4.10;2.57;;;;;;;15.85;79.93;98440.00;5005767;28;20324;-70
2024/01/19 11:14:12;;;;;;;6.55;3.40;;;;;;;16.06;79.16;98438.50;4999559;28;20488;-71
2024/01/19 11:16:46;;;;;;;6.88;2.60;;;;;;;16.14;78.23;98440.13;5004722;28;20034;-71